Terminal Aerodrome Forecast
Issued by NWS

Home | Current Version | Previous Version | Text Only | Print | Product List | Glossary On
Versions: 1 2 3 4 5 6 7 8 9 10 11 12 13 14
042
FTUS46 KLOX 032333
TAFBUR
TAF
KBUR 032333Z 0400/0424 12005KT P6SM SKC
     FM040300 05004KT P6SM SKC
     FM040600 VRB03KT P6SM SKC
     FM042200 17006KT P6SM SKC=

USA.gov is the U.S. government's official web portal to all federal, state and local government web resources and services.